Time;durP1;ratioP1;P1;durP2;ratioP2;P2;SDS_P1;SDS_P2;PMS_P1;PMS_P2;Temp;Humidity;BMP_temperature;BMP_pressure;BME280_temperature;BME280_humidity;BME280_pressure;Samples;Min_cycle;Max_cycle;Signal;HPM_P1;HPM_P2
2023/12/13 00:01:26;;;;;;;52.97;25.90;;;;;;;-144.30;100.00;86758.44;5109776;28;20201;-61
2023/12/13 00:03:54;;;;;;;53.77;26.80;;;;;;;-144.30;100.00;86724.63;5109868;28;20687;-62
2023/12/13 00:06:21;;;;;;;54.80;27.53;;;;;;;-144.30;100.00;86778.31;5109864;28;20241;-61
2023/12/13 00:08:47;;;;;;;54.90;26.23;;;;;;;-144.30;100.00;86758.44;5109272;28;20197;-62
2023/12/13 00:11:14;;;;;;;51.43;27.43;;;;;;;-144.30;100.00;86849.91;5109521;28;20645;-62
2023/12/13 00:13:41;;;;;;;51.97;24.93;;;;;;;-144.30;100.00;86770.38;5109600;28;20282;-62
2023/12/13 00:16:10;;;;;;;50.57;24.70;;;;;;;-144.30;100.00;86752.47;5109100;28;20290;-62
2023/12/13 00:18:37;;;;;;;49.93;24.53;;;;;;;-144.30;100.00;86748.50;5109775;28;20202;-61
2023/12/13 00:21:05;;;;;;;50.20;23.97;;;;;;;-144.30;100.00;86714.69;5110271;28;20293;-62
2023/12/13 00:23:31;;;;;;;50.70;24.13;;;;;;;-144.30;100.00;86786.28;5113202;28;20316;-61
2023/12/13 00:25:58;;;;;;;52.27;24.30;;;;;;;-144.30;100.00;86766.41;5112842;28;20199;-62
2023/12/13 00:28:25;;;;;;;47.17;23.67;;;;;;;-144.30;100.00;86764.41;5113260;28;20194;-60
2023/12/13 00:30:52;;;;;;;48.27;24.17;;;;;;;-144.30;100.00;86758.44;5113226;28;20195;-62
2023/12/13 00:33:20;;;;;;;48.87;23.47;;;;;;;-144.30;100.00;86784.28;5113111;28;20216;-61
2023/12/13 00:35:47;;;;;;;48.47;23.20;;;;;;;-144.30;100.00;86740.53;5113069;28;20196;-50
2023/12/13 00:38:14;;;;;;;48.50;25.03;;;;;;;-144.30;100.00;86756.44;5112685;28;20209;-50
2023/12/13 00:40:41;;;;;;;43.33;23.80;;;;;;;-144.30;100.00;86764.41;5112966;28;20301;-51
2023/12/13 00:43:08;;;;;;;52.97;24.17;;;;;;;-144.30;100.00;86692.81;5112750;28;20226;-62
2023/12/13 00:45:35;;;;;;;44.93;23.57;;;;;;;-144.30;100.00;86774.34;5112958;28;20268;-60
2023/12/13 00:48:02;;;;;;;48.03;24.23;;;;;;;-144.30;100.00;86760.44;5112384;28;20198;-50
2023/12/13 00:50:30;;;;;;;51.50;25.07;;;;;;;-144.30;100.00;86748.50;5112841;28;20718;-51
2023/12/13 00:52:57;;;;;;;49.97;24.57;;;;;;;-144.30;100.00;86792.25;5112805;28;20198;-52
2023/12/13 00:55:24;;;;;;;44.77;23.10;;;;;;;-144.30;100.00;86798.22;5112906;28;20214;-51
2023/12/13 00:57:51;;;;;;;44.03;23.03;;;;;;;-144.30;100.00;86784.28;5112926;28;20580;-60
2023/12/13 01:00:19;;;;;;;47.20;23.43;;;;;;;-144.30;100.00;86772.34;5112109;28;20549;-61
2023/12/13 01:02:45;;;;;;;45.33;22.17;;;;;;;-144.30;100.00;86778.31;5112334;28;20572;-51
2023/12/13 01:05:12;;;;;;;44.00;21.60;;;;;;;-144.30;100.00;86770.38;5112248;28;20290;-50
2023/12/13 01:07:41;;;;;;;44.37;21.17;;;;;;;-144.30;100.00;86724.63;5112557;28;20194;-61
2023/12/13 01:10:09;;;;;;;46.80;20.77;;;;;;;-144.30;100.00;86788.28;5112160;28;20287;-61
2023/12/13 01:12:36;;;;;;;37.77;19.23;;;;;;;-144.30;100.00;86744.53;5112442;28;20646;-61
2023/12/13 01:15:03;;;;;;;34.23;18.87;;;;;;;-144.30;100.00;86798.22;5112663;28;20581;-62
2023/12/13 01:17:32;;;;;;;39.13;19.63;;;;;;;-144.30;100.00;86796.22;5112537;28;20294;-62
2023/12/13 01:19:59;;;;;;;32.63;17.93;;;;;;;-144.30;100.00;86740.53;5112128;28;20191;-62
2023/12/13 01:22:26;;;;;;;41.67;19.70;;;;;;;-144.30;100.00;86752.47;5112418;28;20720;-61
2023/12/13 01:24:54;;;;;;;38.53;20.77;;;;;;;-144.30;100.00;86754.47;5112110;28;20288;-61
2023/12/13 01:27:21;;;;;;;34.63;19.97;;;;;;;-144.30;100.00;86796.22;5112245;28;20711;-50
2023/12/13 01:29:48;;;;;;;37.57;19.20;;;;;;;-144.30;100.00;86776.34;5111834;28;20191;-51
2023/12/13 01:32:15;;;;;;;36.50;18.97;;;;;;;-144.30;100.00;86760.44;5111234;28;20766;-62
2023/12/13 01:34:42;;;;;;;35.63;18.33;;;;;;;-144.30;100.00;86732.59;5111555;28;20206;-62
2023/12/13 01:37:09;;;;;;;39.30;18.93;;;;;;;-144.30;100.00;86686.84;5111883;28;20681;-61
2023/12/13 01:39:35;;;;;;;32.00;18.27;;;;;;;-144.30;100.00;86766.41;5111882;28;20605;-61
2023/12/13 01:42:05;;;;;;;32.23;18.13;;;;;;;-144.30;100.00;86746.50;5111444;28;20230;-50
2023/12/13 01:44:32;;;;;;;35.97;18.43;;;;;;;-144.30;100.00;86764.41;5111774;28;20252;-61
2023/12/13 01:46:59;;;;;;;33.63;18.00;;;;;;;-144.30;100.00;86794.25;5111717;28;20198;-55
2023/12/13 01:49:27;;;;;;;39.13;18.37;;;;;;;-144.30;100.00;86768.38;5111905;28;20642;-62
2023/12/13 01:51:54;;;;;;;33.23;17.97;;;;;;;-144.30;100.00;86756.44;5111532;28;20285;-51
2023/12/13 01:54:21;;;;;;;37.07;18.13;;;;;;;-144.30;100.00;86782.31;5111559;28;20205;-61
2023/12/13 01:56:51;;;;;;;37.57;18.90;;;;;;;-144.30;100.00;86764.41;5111314;28;20281;-50
2023/12/13 01:59:20;;;;;;;37.63;18.03;;;;;;;-144.30;100.00;86762.41;5111207;28;20199;-61
2023/12/13 02:01:47;;;;;;;38.90;18.70;;;;;;;-144.30;100.00;86796.22;5111031;28;20198;-49
2023/12/13 02:04:15;;;;;;;38.87;18.00;;;;;;;-144.30;100.00;86754.47;5110858;28;20219;-51
2023/12/13 02:06:42;;;;;;;35.23;18.13;;;;;;;-144.30;100.00;86756.44;5111576;28;20190;-62
2023/12/13 02:09:09;;;;;;;38.27;18.83;;;;;;;-144.30;100.00;86758.44;5111172;28;20194;-61
2023/12/13 02:11:37;;;;;;;35.40;18.40;;;;;;;-144.30;100.00;86764.41;5111109;28;20217;-52
2023/12/13 02:14:04;;;;;;;39.53;18.40;;;;;;;-144.30;100.00;86708.72;5111058;28;20206;-61
2023/12/13 02:16:34;;;;;;;45.27;18.47;;;;;;;-144.30;100.00;86780.31;5111590;28;20714;-61
2023/12/13 02:19:01;;;;;;;37.50;18.87;;;;;;;-144.30;100.00;86778.31;5111257;28;20334;-50
2023/12/13 02:21:28;;;;;;;38.03;18.67;;;;;;;-144.30;100.00;86744.53;5111018;28;20251;-49
2023/12/13 02:24:03;;;;;;;43.83;18.93;;;;;;;-144.30;100.00;86758.44;5110915;28;20237;-52
2023/12/13 02:26:29;;;;;;;37.47;19.20;;;;;;;-144.30;100.00;86752.47;5110679;28;20204;-52
2023/12/13 02:28:57;;;;;;;40.10;19.83;;;;;;;-144.30;100.00;86680.88;5110703;28;20199;-51
2023/12/13 02:31:26;;;;;;;38.07;18.57;;;;;;;-144.30;100.00;86820.09;5111070;28;20583;-49
2023/12/13 02:33:52;;;;;;;39.47;18.17;;;;;;;-144.30;100.00;86780.31;5110824;28;20195;-50
2023/12/13 02:36:19;;;;;;;34.97;17.70;;;;;;;-144.30;100.00;86804.19;5110845;28;20190;-62
2023/12/13 02:38:46;;;;;;;41.03;19.03;;;;;;;-144.30;100.00;86808.16;5110802;28;20205;-61
2023/12/13 02:41:14;;;;;;;42.63;19.30;;;;;;;-144.30;100.00;86800.19;5110296;28;20240;-50
2023/12/13 02:43:41;;;;;;;36.87;18.93;;;;;;;-144.30;100.00;86752.47;5110517;28;20218;-50
2023/12/13 02:46:08;;;;;;;36.73;18.13;;;;;;;-144.30;100.00;86772.34;5110591;28;20637;-50
2023/12/13 02:48:35;;;;;;;34.77;18.27;;;;;;;-144.30;100.00;86778.31;5110555;28;20229;-48
2023/12/13 02:51:03;;;;;;;39.70;19.20;;;;;;;-144.30;100.00;86776.34;5110522;28;20201;-61
2023/12/13 02:53:30;;;;;;;37.63;19.00;;;;;;;-144.30;100.00;86812.13;5110363;28;20583;-51
2023/12/13 02:55:57;;;;;;;37.63;19.03;;;;;;;-144.30;100.00;86802.19;5110256;28;20202;-51
2023/12/13 02:58:25;;;;;;;34.70;18.70;;;;;;;-144.30;100.00;86816.13;5110396;28;20200;-50
2023/12/13 03:00:53;;;;;;;41.30;19.70;;;;;;;-144.30;100.00;86776.34;5110484;28;20712;-61
2023/12/13 03:03:20;;;;;;;35.77;18.57;;;;;;;-144.30;100.00;86792.25;5109554;28;20223;-61
2023/12/13 03:05:47;;;;;;;35.20;18.17;;;;;;;-144.30;100.00;86768.38;5110217;28;20195;-52
2023/12/13 03:08:16;;;;;;;33.87;16.90;;;;;;;-144.30;100.00;86784.28;5109988;27;20194;-49
2023/12/13 03:10:43;;;;;;;35.83;18.03;;;;;;;-144.30;100.00;86800.19;5110399;28;20621;-51
2023/12/13 03:13:09;;;;;;;33.93;17.80;;;;;;;-144.30;100.00;86764.41;5110053;28;20193;-49
2023/12/13 03:15:38;;;;;;;36.37;17.70;;;;;;;-144.30;100.00;86804.19;5110250;28;20208;-49
2023/12/13 03:18:05;;;;;;;40.07;17.60;;;;;;;-144.30;100.00;86788.28;5110269;28;20283;-51
2023/12/13 03:20:32;;;;;;;31.03;18.00;;;;;;;-144.30;100.00;86784.28;5110180;28;20198;-51
2023/12/13 03:22:59;;;;;;;34.50;17.90;;;;;;;-144.30;100.00;86796.22;5109905;28;20208;-61
2023/12/13 03:25:25;;;;;;;32.83;18.80;;;;;;;-144.30;100.00;86808.16;5110375;28;20633;-60
2023/12/13 03:27:52;;;;;;;33.60;18.23;;;;;;;-144.30;100.00;86824.06;5109907;28;20277;-61
2023/12/13 03:30:19;;;;;;;38.80;18.50;;;;;;;-144.30;100.00;86776.34;5109919;28;20190;-52
2023/12/13 03:32:47;;;;;;;33.77;17.30;;;;;;;-144.30;100.00;86818.09;5109988;28;20199;-50
2023/12/13 03:35:14;;;;;;;30.00;16.27;;;;;;;-144.30;100.00;86800.19;5109712;28;20199;-49
2023/12/13 03:37:41;;;;;;;29.13;16.60;;;;;;;-144.30;100.00;86818.09;5110299;28;20680;-50
2023/12/13 03:40:09;;;;;;;32.17;16.80;;;;;;;-144.30;100.00;86806.16;5110053;28;20688;-50
2023/12/13 03:42:36;;;;;;;25.70;15.97;;;;;;;-144.30;100.00;86800.19;5110130;28;20537;-51
2023/12/13 03:45:03;;;;;;;33.67;15.67;;;;;;;-144.30;100.00;86780.31;5110153;28;20224;-51
2023/12/13 03:47:30;;;;;;;38.97;17.23;;;;;;;-144.30;100.00;86772.34;5110089;28;20205;-62
2023/12/13 03:49:58;;;;;;;30.97;16.33;;;;;;;-144.30;100.00;86774.34;5110141;28;20220;-61
2023/12/13 03:52:25;;;;;;;31.07;16.13;;;;;;;-144.30;100.00;86748.50;5110078;28;20680;-60
2023/12/13 03:54:52;;;;;;;28.80;15.47;;;;;;;-144.30;100.00;86812.13;5109979;28;20285;-61
2023/12/13 03:57:19;;;;;;;28.53;15.40;;;;;;;-144.30;100.00;86800.19;5112836;28;20191;-61
2023/12/13 03:59:46;;;;;;;29.97;14.80;;;;;;;-144.30;100.00;86802.19;5113765;28;20287;-61
2023/12/13 04:02:13;;;;;;;23.67;13.17;;;;;;;-144.30;100.00;86804.19;5113457;27;20205;-61
2023/12/13 04:04:40;;;;;;;23.83;12.53;;;;;;;-144.30;100.00;86800.19;5113716;28;20214;-60
2023/12/13 04:07:09;;;;;;;19.07;11.93;;;;;;;-144.30;100.00;86798.22;5113462;28;20191;-61
2023/12/13 04:09:36;;;;;;;27.00;12.87;;;;;;;-144.30;100.00;86824.06;5113653;28;20293;-61
2023/12/13 04:12:03;;;;;;;24.33;11.93;;;;;;;-144.30;100.00;86708.72;5113403;28;20893;-61
2023/12/13 04:14:30;;;;;;;21.23;12.17;;;;;;;-144.30;100.00;86792.25;5113691;28;20201;-50
2023/12/13 04:16:57;;;;;;;21.43;11.53;;;;;;;-144.30;100.00;86776.34;5113484;28;20217;-61
2023/12/13 04:19:24;;;;;;;19.33;11.67;;;;;;;-144.30;100.00;86764.41;5113468;28;20201;-50
2023/12/13 04:21:50;;;;;;;19.13;10.37;;;;;;;-144.30;100.00;86796.22;5113594;28;20702;-51
2023/12/13 04:24:19;;;;;;;23.13;11.37;;;;;;;-144.30;100.00;86748.50;5113359;28;20214;-50
2023/12/13 04:26:46;;;;;;;18.33;11.10;;;;;;;-144.30;100.00;86808.16;5113327;28;20674;-50
2023/12/13 04:29:13;;;;;;;20.47;11.53;;;;;;;-144.30;100.00;86802.19;5113234;28;20201;-61
2023/12/13 04:31:40;;;;;;;18.83;10.77;;;;;;;-144.30;100.00;86802.19;5113252;28;20198;-60
2023/12/13 04:34:07;;;;;;;16.23;10.87;;;;;;;-144.30;100.00;86760.44;5113344;28;20647;-51
2023/12/13 04:36:35;;;;;;;20.20;11.30;;;;;;;-144.30;100.00;86774.34;5112980;28;20199;-50
2023/12/13 04:39:02;;;;;;;20.47;11.87;;;;;;;-144.30;100.00;86796.22;5112868;28;20269;-49
2023/12/13 04:41:32;;;;;;;21.07;11.50;;;;;;;-144.30;100.00;86808.16;5112802;28;20263;-62
2023/12/13 04:43:59;;;;;;;20.37;12.53;;;;;;;-144.30;100.00;86768.38;5112658;28;20218;-62
2023/12/13 04:46:26;;;;;;;19.43;11.50;;;;;;;-144.30;100.00;86766.41;5112777;28;20584;-60
2023/12/13 04:48:53;;;;;;;28.13;12.73;;;;;;;-144.30;100.00;86770.38;5112926;28;20199;-61
2023/12/13 04:51:20;;;;;;;28.23;13.13;;;;;;;-144.30;100.00;86796.22;5112706;28;20194;-61
2023/12/13 04:53:47;;;;;;;24.33;12.83;;;;;;;-144.30;100.00;86768.38;5112779;28;20205;-52
2023/12/13 04:56:14;;;;;;;22.03;12.17;;;;;;;-144.30;100.00;86796.22;5112679;28;20289;-49
2023/12/13 04:58:42;;;;;;;19.00;11.60;;;;;;;-144.30;100.00;86668.94;5112671;28;20199;-53
2023/12/13 05:01:09;;;;;;;23.03;11.80;;;;;;;-144.30;100.00;86800.19;5107044;28;20205;-62
2023/12/13 05:03:36;;;;;;;24.10;12.70;;;;;;;-144.30;100.00;86788.28;5111636;28;20748;-62
2023/12/13 05:06:03;;;;;;;28.13;13.67;;;;;;;-144.30;100.00;86766.41;5112347;28;20202;-61
2023/12/13 05:08:30;;;;;;;24.77;13.13;;;;;;;-144.30;100.00;86804.19;5110891;28;20215;-49
2023/12/13 05:10:58;;;;;;;18.03;10.37;;;;;;;-144.30;100.00;86772.34;5112343;27;20286;-50
2023/12/13 05:13:26;;;;;;;17.60;10.37;;;;;;;-144.30;100.00;86798.22;5109171;28;20210;-49
2023/12/13 05:15:54;;;;;;;15.23;9.73;;;;;;;-144.30;100.00;86780.31;5110004;28;20195;-61
2023/12/13 05:18:21;;;;;;;22.63;10.27;;;;;;;-144.30;100.00;86786.28;5110933;28;20270;-61
2023/12/13 05:20:49;;;;;;;17.27;10.50;;;;;;;-144.30;100.00;86800.19;5111581;28;20282;-61
2023/12/13 05:23:16;;;;;;;20.90;9.77;;;;;;;-144.30;100.00;86740.53;5111538;28;20199;-51
2023/12/13 05:25:43;;;;;;;20.67;10.07;;;;;;;-144.30;100.00;86774.34;5111679;28;20249;-50
2023/12/13 05:28:10;;;;;;;30.33;13.53;;;;;;;-144.30;100.00;86772.34;5111475;28;20193;-61
2023/12/13 05:30:37;;;;;;;27.17;15.30;;;;;;;-144.30;100.00;86780.31;5111155;28;20199;-51
2023/12/13 05:33:07;;;;;;;22.83;13.13;;;;;;;-144.30;100.00;86764.41;5111157;28;20201;-49
2023/12/13 05:35:34;;;;;;;22.50;12.77;;;;;;;-144.30;100.00;86782.31;5111078;28;20281;-51
2023/12/13 05:38:00;;;;;;;21.17;11.20;;;;;;;-144.30;100.00;86712.69;5111660;28;20248;-52
2023/12/13 05:40:27;;;;;;;24.67;11.40;;;;;;;-144.30;100.00;86734.56;5110855;28;20763;-50
2023/12/13 05:42:55;;;;;;;19.47;12.53;;;;;;;-144.30;99.86;86774.34;5111287;28;20238;-50
2023/12/13 05:45:22;;;;;;;20.93;13.67;;;;;;;-144.30;99.56;86756.44;5110346;28;20245;-61
2023/12/13 05:47:49;;;;;;;25.67;13.93;;;;;;;-144.30;100.00;86792.25;5110784;28;20202;-61
2023/12/13 05:50:17;;;;;;;22.80;15.13;;;;;;;-144.30;100.00;87070.69;5111277;28;20727;-61
2023/12/13 05:52:44;;;;;;;26.07;16.40;;;;;;;-144.30;100.00;86768.38;5111623;28;20286;-61
2023/12/13 05:55:12;;;;;;;36.83;20.27;;;;;;;-144.30;99.85;86740.53;5111282;28;20195;-61
2023/12/13 05:57:39;;;;;;;41.50;20.50;;;;;;;-144.30;99.93;86744.53;5111348;28;20198;-61
2023/12/13 06:00:07;;;;;;;31.23;16.23;;;;;;;-144.30;99.80;86778.31;5110704;28;20285;-62
2023/12/13 06:02:35;;;;;;;30.57;16.50;;;;;;;-144.30;100.00;86760.44;5110764;28;20199;-61
2023/12/13 06:05:02;;;;;;;33.63;16.83;;;;;;;-144.30;99.83;86748.50;5110971;28;20279;-62
2023/12/13 06:07:32;;;;;;;31.03;15.00;;;;;;;-144.30;100.00;86798.22;5110421;28;20210;-51
2023/12/13 06:09:59;;;;;;;34.27;16.10;;;;;;;-144.30;100.00;86762.41;5111114;28;20313;-49
2023/12/13 06:12:26;;;;;;;45.43;19.57;;;;;;;-144.30;100.00;86756.44;5110982;28;20248;-50
2023/12/13 06:14:53;;;;;;;44.27;20.23;;;;;;;-144.30;100.00;86774.34;5111183;28;20193;-51
2023/12/13 06:17:20;;;;;;;41.73;21.43;;;;;;;-144.30;99.74;86736.56;5111036;28;20194;-50
2023/12/13 06:19:47;;;;;;;48.47;23.20;;;;;;;-144.30;99.93;86792.25;5110963;28;20213;-50
2023/12/13 06:22:14;;;;;;;47.13;23.67;;;;;;;-144.30;100.00;86788.28;5110402;28;20205;-50
2023/12/13 06:24:42;;;;;;;57.03;24.27;;;;;;;-144.30;100.00;86774.34;5110844;28;20221;-51
2023/12/13 06:27:09;;;;;;;43.07;23.70;;;;;;;-144.30;100.00;86788.28;5110601;28;20285;-51
2023/12/13 06:29:36;;;;;;;49.13;24.40;;;;;;;-144.30;100.00;86784.28;5110541;28;20201;-51
2023/12/13 06:32:02;;;;;;;48.73;24.60;;;;;;;-144.30;100.00;86772.34;5110576;28;20590;-51
2023/12/13 06:34:30;;;;;;;43.40;24.67;;;;;;;-144.30;100.00;86776.34;5110824;28;20586;-50
2023/12/13 06:36:57;;;;;;;56.07;28.17;;;;;;;-144.30;100.00;86794.25;5110675;28;20206;-51
2023/12/13 06:39:24;;;;;;;54.83;28.33;;;;;;;-144.30;100.00;86736.56;5110394;28;20199;-50
2023/12/13 06:41:52;;;;;;;57.07;29.80;;;;;;;-144.30;100.00;86786.28;5110530;28;20232;-62
2023/12/13 06:44:19;;;;;;;62.90;29.70;;;;;;;-144.30;100.00;86732.59;5110387;28;20724;-50
2023/12/13 06:46:46;;;;;;;57.73;30.20;;;;;;;-144.30;100.00;86782.31;5110291;28;20190;-61
2023/12/13 06:49:13;;;;;;;50.17;26.50;;;;;;;-144.30;100.00;86742.53;5109817;28;20209;-62
2023/12/13 06:51:40;;;;;;;53.93;27.30;;;;;;;-144.30;100.00;86742.53;5110499;28;20191;-61
2023/12/13 06:54:08;;;;;;;44.27;25.00;;;;;;;-144.30;100.00;86728.59;5110331;28;20240;-61
2023/12/13 06:56:35;;;;;;;51.30;26.27;;;;;;;-144.30;100.00;86764.41;5109485;28;20214;-61
2023/12/13 06:59:03;;;;;;;49.57;26.03;;;;;;;-144.30;100.00;86746.50;5109614;28;20195;-62
2023/12/13 07:01:31;;;;;;;54.63;27.03;;;;;;;-144.30;100.00;86752.47;5109938;28;20202;-62
2023/12/13 07:03:57;;;;;;;59.17;30.77;;;;;;;-144.30;99.96;86758.44;5109770;28;20194;-62
2023/12/13 07:06:24;;;;;;;62.07;31.73;;;;;;;-144.30;99.54;86748.50;5110008;28;20226;-61
2023/12/13 07:08:51;;;;;;;58.37;30.37;;;;;;;-144.30;99.89;86728.59;5110037;28;20190;-60
2023/12/13 07:11:18;;;;;;;76.37;32.97;;;;;;;-144.30;99.42;86684.84;5109732;28;20287;-51
2023/12/13 07:13:46;;;;;;;66.57;34.37;;;;;;;-144.30;98.69;86740.53;5110264;28;20259;-51
2023/12/13 07:16:15;;;;;;;70.20;33.20;;;;;;;-144.30;98.84;86712.69;5109785;28;20194;-52
2023/12/13 07:18:41;;;;;;;62.80;30.93;;;;;;;-144.30;98.97;86732.59;5110122;28;20210;-53
2023/12/13 07:21:08;;;;;;;58.53;27.00;;;;;;;-144.30;98.17;86724.63;5109521;28;20625;-61
2023/12/13 07:23:36;;;;;;;50.13;25.57;;;;;;;-144.30;97.98;86728.59;5109890;28;20290;-62
2023/12/13 07:26:03;;;;;;;42.20;23.80;;;;;;;-144.30;97.65;86674.91;5109800;28;20322;-61
2023/12/13 07:28:30;;;;;;;53.60;26.87;;;;;;;-144.30;97.68;86680.88;5109523;28;20212;-61
2023/12/13 07:30:57;;;;;;;56.63;26.13;;;;;;;-144.30;97.14;86696.78;5110644;28;20202;-60
2023/12/13 07:33:25;;;;;;;46.07;23.63;;;;;;;-144.30;96.86;86696.78;5113889;28;20196;-62
2023/12/13 07:35:52;;;;;;;45.20;25.20;;;;;;;-144.30;97.36;86672.94;5114232;28;20197;-50
2023/12/13 07:38:19;;;;;;;51.40;23.60;;;;;;;-144.30;97.27;86712.69;5114215;28;20199;-51
2023/12/13 07:40:47;;;;;;;42.10;23.80;;;;;;;-144.30;96.97;86712.69;5113695;28;20234;-51
2023/12/13 07:43:14;;;;;;;45.20;24.77;;;;;;;-144.30;97.27;86521.78;5113557;28;20734;-50
2023/12/13 07:45:41;;;;;;;43.83;23.93;;;;;;;-144.30;97.55;86661.00;5113660;28;20221;-53
2023/12/13 07:48:08;;;;;;;46.90;23.47;;;;;;;-144.30;97.52;86678.88;5114062;28;20202;-52
2023/12/13 07:50:36;;;;;;;42.60;23.63;;;;;;;-144.30;97.63;86696.78;5113596;28;20194;-50
2023/12/13 07:53:03;;;;;;;50.63;25.20;;;;;;;-144.30;98.20;86674.91;5113676;28;20204;-52
2023/12/13 07:55:30;;;;;;;57.73;27.50;;;;;;;-144.30;98.23;86688.84;5113780;28;20191;-52
2023/12/13 07:57:57;;;;;;;54.73;27.67;;;;;;;-144.30;97.85;86672.94;5113648;28;20194;-51
2023/12/13 08:00:24;;;;;;;55.97;27.93;;;;;;;-144.30;97.36;86641.09;5113553;28;20205;-51
2023/12/13 08:02:51;;;;;;;58.93;26.17;;;;;;;-144.30;96.97;86641.09;5113493;28;20289;-52
2023/12/13 08:05:20;;;;;;;49.47;22.73;;;;;;;-144.30;96.37;86617.25;5113004;28;20232;-51
2023/12/13 08:07:48;;;;;;;44.57;24.07;;;;;;;-144.30;96.06;86651.06;5113579;28;20201;-51
2023/12/13 08:10:15;;;;;;;44.60;23.60;;;;;;;-144.30;96.08;86625.19;5113470;28;20190;-62
2023/12/13 08:12:43;;;;;;;43.30;23.77;;;;;;;-144.30;95.62;86609.28;5112985;28;20285;-60
2023/12/13 08:15:10;;;;;;;49.10;25.07;;;;;;;-144.30;95.40;86583.44;5113110;28;20197;-61
2023/12/13 08:17:37;;;;;;;46.70;23.20;;;;;;;-144.30;95.89;86625.19;5113151;28;20197;-62
2023/12/13 08:20:06;;;;;;;46.33;25.70;;;;;;;-144.30;95.28;86593.38;5113242;28;20764;-61
2023/12/13 08:22:33;;;;;;;54.00;25.93;;;;;;;-144.30;95.39;86589.41;5113266;28;20194;-50
2023/12/13 08:25:01;;;;;;;50.90;23.63;;;;;;;-144.30;95.38;86541.69;5112652;28;20268;-52
2023/12/13 08:27:28;;;;;;;45.73;21.27;;;;;;;-144.30;95.15;86619.22;5113464;27;20224;-61
2023/12/13 08:29:55;;;;;;;44.07;20.63;;;;;;;-144.30;95.38;86609.28;5113112;28;20206;-61
2023/12/13 08:32:22;;;;;;;39.20;20.80;;;;;;;-144.30;95.81;86595.38;5113107;28;20226;-51
2023/12/13 08:34:49;;;;;;;38.73;20.30;;;;;;;-144.30;95.50;86607.31;5113049;28;20221;-51
2023/12/13 08:37:17;;;;;;;41.80;21.90;;;;;;;-144.30;96.11;86551.63;5112312;28;20659;-53
2023/12/13 08:39:44;;;;;;;43.80;21.50;;;;;;;-144.30;95.91;86579.47;5109666;28;20247;-52
2023/12/13 08:42:12;;;;;;;40.80;20.70;;;;;;;-144.30;95.75;86587.41;5112344;28;20234;-53
2023/12/13 08:44:39;;;;;;;43.07;23.20;;;;;;;-144.30;94.99;86565.53;5112485;28;20222;-52
2023/12/13 08:47:06;;;;;;;37.23;21.80;;;;;;;-144.30;94.92;86553.59;5112645;27;20194;-60
2023/12/13 08:49:33;;;;;;;38.67;20.20;;;;;;;-144.30;95.10;86549.63;5112854;28;20205;-51
2023/12/13 08:51:59;;;;;;;43.90;21.23;;;;;;;-144.30;95.33;86565.53;5112722;28;20670;-52
2023/12/13 08:54:27;;;;;;;37.40;21.60;;;;;;;-144.30;95.28;86605.31;5112665;28;20662;-54
2023/12/13 08:56:54;;;;;;;46.63;23.27;;;;;;;-144.30;94.76;86545.66;5112828;28;20659;-63
2023/12/13 08:59:22;;;;;;;41.07;23.13;;;;;;;-144.30;94.64;86557.59;5111719;28;20290;-50
2023/12/13 09:01:49;;;;;;;53.67;25.30;;;;;;;-144.30;94.68;86577.47;5112145;28;20205;-52
2023/12/13 09:04:16;;;;;;;51.47;26.87;;;;;;;-144.30;94.65;86545.66;5111562;27;20198;-62
2023/12/13 09:06:43;;;;;;;55.90;27.73;;;;;;;-144.30;94.33;86531.72;5111848;28;20267;-62
2023/12/13 09:09:11;;;;;;;45.40;26.10;;;;;;;-144.30;93.78;86535.72;5112150;28;20191;-62
2023/12/13 09:11:38;;;;;;;48.57;24.73;;;;;;;-144.30;92.71;86535.72;5112239;28;20252;-60
2023/12/13 09:14:05;;;;;;;42.93;24.23;;;;;;;-144.30;93.37;86535.72;5112048;28;20203;-61
2023/12/13 09:16:33;;;;;;;42.47;22.33;;;;;;;-144.30;93.56;86499.91;5112246;28;20187;-62
2023/12/13 09:19:00;;;;;;;42.20;20.77;;;;;;;-144.30;93.36;86531.72;5112274;28;20554;-61
2023/12/13 09:21:27;;;;;;;42.07;19.27;;;;;;;-144.30;93.35;86474.06;5112093;28;20226;-62
2023/12/13 09:23:54;;;;;;;37.33;18.77;;;;;;;-144.30;93.63;86551.63;5112138;28;20200;-62
2023/12/13 09:26:21;;;;;;;35.03;18.60;;;;;;;-144.30;93.79;86581.44;5111938;28;20258;-62
2023/12/13 09:28:48;;;;;;;38.90;20.50;;;;;;;-144.30;93.12;86545.66;5112027;28;20395;-52
2023/12/13 09:31:15;;;;;;;37.23;20.00;;;;;;;-144.30;93.37;86553.59;5111454;28;20277;-53
2023/12/13 09:33:44;;;;;;;42.53;20.47;;;;;;;-144.30;93.34;86539.69;5111828;28;20281;-54
2023/12/13 09:36:11;;;;;;;43.10;21.33;;;;;;;-144.30;93.03;86551.63;5111826;28;20278;-52
2023/12/13 09:38:38;;;;;;;37.37;20.77;;;;;;;-144.30;93.26;86537.69;5112028;28;20708;-51
2023/12/13 09:41:06;;;;;;;43.07;21.33;;;;;;;-144.30;92.42;86545.66;5111550;28;20769;-51
2023/12/13 09:43:35;;;;;;;45.97;22.13;;;;;;;-144.30;92.31;86515.81;5111858;28;20642;-53
2023/12/13 09:46:05;;;;;;;40.80;22.20;;;;;;;-144.30;92.33;86509.84;5111513;28;20229;-52
2023/12/13 09:48:34;;;;;;;45.90;23.50;;;;;;;-144.30;92.02;86517.81;5111453;28;20205;-53
2023/12/13 09:51:05;;;;;;;45.50;22.43;;;;;;;-144.30;90.82;86489.97;5111714;28;20201;-52
2023/12/13 09:53:34;;;;;;;48.17;22.87;;;;;;;-144.30;90.72;86454.19;5110714;28;20205;-54
2023/12/13 09:56:02;;;;;;;40.97;22.97;;;;;;;-144.30;90.75;86482.03;5111698;27;20539;-51
2023/12/13 09:58:29;;;;;;;40.13;23.27;;;;;;;-144.30;91.33;86533.72;5111703;28;20221;-62
2023/12/13 10:00:57;;;;;;;48.70;23.73;;;;;;;-144.30;90.99;86537.69;5111618;28;20226;-53
2023/12/13 10:03:24;;;;;;;47.47;24.30;;;;;;;-144.30;90.90;86511.84;5111310;28;20190;-52
2023/12/13 10:05:56;;;;;;;45.93;24.57;;;;;;;-144.30;91.57;86499.91;5111146;28;20313;-62
2023/12/13 10:08:25;;;;;;;49.67;27.40;;;;;;;-144.30;91.55;86551.63;5111748;28;20306;-62
2023/12/13 10:10:53;;;;;;;50.77;26.50;;;;;;;-144.30;91.89;86523.78;5111290;28;20206;-61
2023/12/13 10:13:20;;;;;;;54.23;27.73;;;;;;;-144.30;92.38;86482.03;5111138;28;20732;-61
2023/12/13 10:15:47;;;;;;;57.23;27.40;;;;;;;-144.30;92.01;86497.94;5111304;28;20580;-62
2023/12/13 10:18:14;;;;;;;52.37;26.13;;;;;;;-144.30;92.42;86545.66;5111038;28;20199;-61
2023/12/13 10:20:41;;;;;;;53.63;26.63;;;;;;;-144.30;92.49;86454.19;5111040;28;20239;-62
2023/12/13 10:23:08;;;;;;;56.57;27.20;;;;;;;-144.30;92.37;86533.72;5110959;28;20194;-60
2023/12/13 10:25:39;;;;;;;53.33;27.77;;;;;;;-144.30;92.20;86484.00;5110890;28;20254;-51
2023/12/13 10:28:06;;;;;;;54.47;28.93;;;;;;;-144.30;92.04;86499.91;5110840;28;20195;-50
2023/12/13 10:30:34;;;;;;;53.97;27.87;;;;;;;-144.30;91.96;86491.97;5106802;28;20463;-51
2023/12/13 10:33:01;;;;;;;50.33;26.70;;;;;;;-144.30;91.65;86489.97;5110072;28;20585;-53
2023/12/13 10:35:28;;;;;;;56.97;26.13;;;;;;;-144.30;91.65;86430.31;5106664;28;20742;-53
2023/12/13 10:38:00;;;;;;;48.77;25.67;;;;;;;-144.30;91.24;86482.03;5110680;28;20234;-62
2023/12/13 10:40:27;;;;;;;45.87;25.03;;;;;;;-144.30;90.94;86466.09;5098277;28;20210;-60
2023/12/13 10:42:57;;;;;;;52.60;26.90;;;;;;;-144.30;90.56;86460.16;5109978;28;20754;-60
2023/12/13 10:45:25;;;;;;;47.10;25.70;;;;;;;-144.30;91.07;86436.28;5109808;28;20618;-61
2023/12/13 10:47:58;;;;;;;58.97;27.17;;;;;;;-144.30;90.73;86468.09;5109563;28;20194;-53
2023/12/13 10:50:25;;;;;;;50.30;25.87;;;;;;;-144.30;90.61;86462.13;5110698;28;20205;-53
2023/12/13 10:52:55;;;;;;;51.27;26.53;;;;;;;-144.30;90.61;86446.22;5110539;28;20256;-52
2023/12/13 10:55:23;;;;;;;54.67;27.73;;;;;;;-144.30;90.05;86462.13;5110299;28;20277;-52
2023/12/13 10:57:51;;;;;;;59.53;26.40;;;;;;;-144.30;89.76;86438.28;5110634;28;20202;-60